createdAt,value
2022-10-15T00:00:09.765Z,56.10
2022-10-15T00:02:36.308Z,52.20
2022-10-15T00:05:03.259Z,47.80
2022-10-15T00:07:30.384Z,51.60
2022-10-15T00:09:57.157Z,52.60
2022-10-15T00:12:23.601Z,52.90
2022-10-15T00:14:50.035Z,49.70
2022-10-15T00:17:16.542Z,48.50
2022-10-15T00:19:42.988Z,47.00
2022-10-15T00:22:09.551Z,45.00
2022-10-15T00:24:37.014Z,50.40
2022-10-15T00:27:03.755Z,47.80
2022-10-15T00:29:30.195Z,47.90
2022-10-15T00:31:56.737Z,48.20
2022-10-15T00:34:23.165Z,53.00
2022-10-15T00:36:50.948Z,56.40
2022-10-15T00:39:17.797Z,58.00
2022-10-15T00:41:45.464Z,57.70
2022-10-15T00:44:21.021Z,56.30
2022-10-15T00:47:15.528Z,54.30
2022-10-15T00:49:48.976Z,53.40
2022-10-15T00:52:44.752Z,55.00
2022-10-15T00:55:17.536Z,57.50
2022-10-15T00:57:47.071Z,56.80
2022-10-15T01:00:14.930Z,59.40
2022-10-15T01:02:42.846Z,52.60
2022-10-15T01:05:09.748Z,54.00
2022-10-15T01:07:36.399Z,55.00
2022-10-15T01:10:06.188Z,52.50
2022-10-15T01:12:35.673Z,50.60
2022-10-15T01:15:19.546Z,51.50
2022-10-15T01:17:59.536Z,48.70
2022-10-15T01:20:44.806Z,48.50
2022-10-15T01:23:49.147Z,43.80
2022-10-15T01:26:30.072Z,43.70
2022-10-15T01:29:21.650Z,43.50
2022-10-15T01:32:20.035Z,43.10
2022-10-15T01:35:20.943Z,41.40
2022-10-15T01:37:57.767Z,30.10
2022-10-15T01:40:31.682Z,41.90
2022-10-15T01:43:00.137Z,42.70
2022-10-15T01:45:35.003Z,41.00
2022-10-15T01:48:11.405Z,40.50
2022-10-15T01:50:44.271Z,40.80
2022-10-15T01:53:13.637Z,39.60
2022-10-15T01:55:44.951Z,41.00
2022-10-15T02:00:41.937Z,42.10
2022-10-15T02:03:08.646Z,42.70
2022-10-15T02:05:41.101Z,40.60
2022-10-15T02:08:35.150Z,41.10
2022-10-15T02:11:08.914Z,41.70
2022-10-15T02:14:03.362Z,42.40
2022-10-15T02:16:41.323Z,42.10
2022-10-15T02:19:25.994Z,44.60
2022-10-15T02:22:16.204Z,42.20
2022-10-15T02:25:09.811Z,38.80
2022-10-15T02:27:38.052Z,38.50
2022-10-15T02:30:08.576Z,39.00
2022-10-15T02:32:38.683Z,44.00
2022-10-15T02:35:07.835Z,42.00
2022-10-15T02:37:35.679Z,39.80
2022-10-15T02:40:02.375Z,45.60
2022-10-15T02:42:29.269Z,45.70
2022-10-15T02:44:55.830Z,42.30
2022-10-15T02:47:22.534Z,41.20
2022-10-15T02:49:49.102Z,39.10
2022-10-15T02:52:15.740Z,39.80
2022-10-15T02:54:42.380Z,42.20
2022-10-15T02:57:08.830Z,42.00
2022-10-15T02:59:35.285Z,42.70
2022-10-15T03:02:01.809Z,39.80
2022-10-15T03:04:28.445Z,42.10
2022-10-15T03:06:55.084Z,49.20
2022-10-15T03:09:21.574Z,46.80
2022-10-15T03:11:48.070Z,45.30
2022-10-15T03:14:14.713Z,47.50
2022-10-15T03:16:41.461Z,48.40
2022-10-15T03:19:07.943Z,52.80
2022-10-15T03:21:34.537Z,57.20
2022-10-15T03:24:01.086Z,51.80
2022-10-15T03:26:27.607Z,51.10
2022-10-15T03:28:54.048Z,49.20
2022-10-15T03:31:20.814Z,47.90
2022-10-15T03:33:47.367Z,46.20
2022-10-15T03:36:14.092Z,44.10
2022-10-15T03:38:40.637Z,44.10
2022-10-15T03:41:07.255Z,46.10
2022-10-15T03:43:36.281Z,44.70
2022-10-15T03:46:05.910Z,46.10
2022-10-15T03:48:32.475Z,49.70
2022-10-15T03:50:58.900Z,48.40
2022-10-15T03:53:25.829Z,50.80
2022-10-15T03:55:52.621Z,47.70
2022-10-15T03:58:19.147Z,63.00
2022-10-15T04:00:45.792Z,66.50
2022-10-15T04:03:12.555Z,64.30
2022-10-15T04:05:39.047Z,63.00
2022-10-15T04:08:06.288Z,56.50
2022-10-15T04:10:32.919Z,47.70
2022-10-15T04:12:59.480Z,43.80
2022-10-15T04:15:26.122Z,43.00
2022-10-15T04:17:55.429Z,41.30
2022-10-15T04:20:22.003Z,41.60
2022-10-15T04:22:48.615Z,42.60
2022-10-15T04:25:15.358Z,44.60
2022-10-15T04:27:41.763Z,71.10
2022-10-15T04:30:09.137Z,74.20
2022-10-15T04:32:35.717Z,68.90
2022-10-15T04:35:02.239Z,66.10
2022-10-15T04:37:28.780Z,57.00
2022-10-15T04:39:55.424Z,55.20
2022-10-15T04:42:21.970Z,61.70
2022-10-15T04:44:48.612Z,65.60
2022-10-15T04:47:15.148Z,61.80
2022-10-15T04:49:41.690Z,55.50
2022-10-15T04:52:08.227Z,55.10
2022-10-15T04:54:34.767Z,50.40
2022-10-15T04:57:01.305Z,48.80
2022-10-15T04:59:27.950Z,42.90
2022-10-15T05:01:54.521Z,41.40
2022-10-15T05:04:21.028Z,39.00
2022-10-15T05:06:47.672Z,41.90
2022-10-15T05:09:14.545Z,39.10
2022-10-15T05:11:40.964Z,39.00
2022-10-15T05:14:08.096Z,38.70
2022-10-15T05:16:34.562Z,36.50
2022-10-15T05:19:07.557Z,35.80
2022-10-15T05:21:35.316Z,36.80
2022-10-15T05:24:02.250Z,42.60
2022-10-15T05:26:29.824Z,43.60
2022-10-15T05:28:58.130Z,37.40
2022-10-15T05:31:27.006Z,38.10
2022-10-15T05:33:54.565Z,35.10
2022-10-15T05:36:27.412Z,36.20
2022-10-15T05:38:58.910Z,34.70
2022-10-15T05:41:26.168Z,35.60
2022-10-15T05:43:55.247Z,33.60
2022-10-15T05:46:22.117Z,33.50
2022-10-15T05:48:49.685Z,34.60
2022-10-15T05:51:16.528Z,34.70
2022-10-15T05:53:43.281Z,35.40
2022-10-15T05:56:10.271Z,33.20
2022-10-15T05:58:37.787Z,33.60
2022-10-15T06:01:06.902Z,34.50
2022-10-15T06:03:33.638Z,30.90
2022-10-15T06:06:00.143Z,29.40
2022-10-15T06:08:28.969Z,35.80
2022-10-15T06:10:55.713Z,32.80
2022-10-15T06:13:22.623Z,31.90
2022-10-15T06:15:49.306Z,33.60
2022-10-15T06:18:15.748Z,26.40
2022-10-15T06:20:43.597Z,27.10
2022-10-15T06:23:11.583Z,24.60
2022-10-15T06:25:38.025Z,24.60
2022-10-15T06:28:06.467Z,23.00
2022-10-15T06:30:33.153Z,20.50
2022-10-15T06:32:59.804Z,21.80
2022-10-15T06:35:27.510Z,21.20
2022-10-15T06:37:57.116Z,20.90
2022-10-15T06:40:25.685Z,21.10
2022-10-15T06:42:52.212Z,17.90
2022-10-15T06:45:21.023Z,18.70
2022-10-15T06:47:48.867Z,18.90
2022-10-15T06:50:15.509Z,17.70
2022-10-15T06:52:42.074Z,18.70
2022-10-15T06:55:09.303Z,17.80
2022-10-15T06:57:35.763Z,18.20
2022-10-15T07:00:02.269Z,17.90
2022-10-15T07:02:28.721Z,17.70
2022-10-15T07:04:55.188Z,18.10
2022-10-15T07:07:21.618Z,18.20
2022-10-15T07:09:48.036Z,18.20
2022-10-15T07:12:14.496Z,17.90
2022-10-15T07:14:42.461Z,18.80
2022-10-15T07:17:09.187Z,18.20
2022-10-15T07:19:35.741Z,17.80
2022-10-15T07:22:02.163Z,18.40
2022-10-15T07:24:28.719Z,19.30
2022-10-15T07:26:55.265Z,17.50
2022-10-15T07:29:21.704Z,18.20
2022-10-15T07:31:48.247Z,17.10
2022-10-15T07:34:14.777Z,18.20
2022-10-15T07:36:41.316Z,19.30
2022-10-15T07:39:09.498Z,18.80
2022-10-15T07:41:36.241Z,19.60
2022-10-15T07:44:03.090Z,19.80
2022-10-15T07:46:29.626Z,18.40
2022-10-15T07:48:56.375Z,17.80
2022-10-15T07:51:23.122Z,19.60
2022-10-15T07:53:49.560Z,18.40
2022-10-15T07:56:16.566Z,17.50
2022-10-15T07:58:43.765Z,13.30
2022-10-15T08:01:11.289Z,11.70
2022-10-15T08:03:38.283Z,11.80
2022-10-15T08:06:07.381Z,11.80
2022-10-15T08:08:35.203Z,11.20
2022-10-15T08:11:28.004Z,11.40
2022-10-15T08:13:54.443Z,10.80
2022-10-15T08:16:20.890Z,10.80
2022-10-15T08:18:47.404Z,10.70
2022-10-15T08:21:14.170Z,9.80
2022-10-15T08:23:40.739Z,10.20
2022-10-15T08:26:08.911Z,10.20
2022-10-15T08:28:35.755Z,10.10
2022-10-15T08:31:05.538Z,10.00
2022-10-15T08:33:34.496Z,9.90
2022-10-15T08:36:01.397Z,9.40
2022-10-15T08:38:29.936Z,9.40
2022-10-15T08:40:59.323Z,10.30
2022-10-15T08:43:35.254Z,10.10
2022-10-15T08:46:06.333Z,9.50
2022-10-15T08:48:49.990Z,9.80
2022-10-15T08:51:22.689Z,10.40
2022-10-15T08:53:53.161Z,9.80
2022-10-15T08:56:30.407Z,9.80
2022-10-15T08:59:07.553Z,9.80
2022-10-15T09:01:43.102Z,9.60
2022-10-15T09:04:34.435Z,9.70
2022-10-15T09:07:27.595Z,8.70
2022-10-15T09:10:01.409Z,8.80
2022-10-15T09:12:52.624Z,10.40
2022-10-15T09:15:23.973Z,8.40
2022-10-15T09:17:55.791Z,9.10
2022-10-15T09:20:31.194Z,8.60
2022-10-15T09:22:57.836Z,8.50
2022-10-15T09:25:31.235Z,8.60
2022-10-15T09:28:09.152Z,8.50
2022-10-15T09:30:52.788Z,8.70
2022-10-15T09:33:36.226Z,8.50
2022-10-15T09:36:05.430Z,8.90
2022-10-15T09:38:47.435Z,9.10
2022-10-15T09:41:42.575Z,9.00
2022-10-15T09:44:12.472Z,8.30
2022-10-15T09:46:47.421Z,8.20
2022-10-15T09:49:31.254Z,8.10
2022-10-15T09:52:29.243Z,8.80
2022-10-15T09:55:03.352Z,8.10
2022-10-15T09:57:33.073Z,7.70
2022-10-15T10:00:02.018Z,8.30
2022-10-15T10:02:30.101Z,8.10
2022-10-15T10:04:56.949Z,7.90
2022-10-15T10:07:38.124Z,7.90
2022-10-15T10:10:21.727Z,8.30
2022-10-15T10:12:48.415Z,7.80
2022-10-15T10:15:35.678Z,7.90
2022-10-15T10:18:05.314Z,8.10
2022-10-15T10:20:34.002Z,7.40
2022-10-15T10:23:02.797Z,8.00
2022-10-15T10:25:29.240Z,7.00
2022-10-15T10:28:04.862Z,7.10
2022-10-15T10:30:43.891Z,7.90
2022-10-15T10:33:14.767Z,7.10
2022-10-15T10:35:47.185Z,7.40
2022-10-15T10:38:25.362Z,7.80
2022-10-15T10:40:54.556Z,8.20
2022-10-15T10:43:29.195Z,7.50
2022-10-15T10:46:02.127Z,7.60
2022-10-15T10:48:39.266Z,7.00
2022-10-15T10:51:19.592Z,6.90
2022-10-15T10:54:03.677Z,6.80
2022-10-15T10:56:31.446Z,7.50
2022-10-15T10:59:15.302Z,7.20
2022-10-15T11:01:42.381Z,6.40
2022-10-15T11:04:18.599Z,6.50
2022-10-15T11:07:14.437Z,6.80
2022-10-15T11:10:09.040Z,7.20
2022-10-15T11:12:59.329Z,7.40
2022-10-15T11:15:51.687Z,6.60
2022-10-15T11:18:48.745Z,7.10
2022-10-15T11:21:31.257Z,6.90
2022-10-15T11:24:48.317Z,7.00
2022-10-15T11:27:33.878Z,6.90
2022-10-15T11:30:23.356Z,6.60
2022-10-15T11:33:23.194Z,6.40
2022-10-15T11:36:15.526Z,7.10
2022-10-15T11:38:59.318Z,6.60
2022-10-15T11:41:50.338Z,6.50
2022-10-15T11:44:32.493Z,6.50
2022-10-15T11:47:30.388Z,8.80
2022-10-15T11:50:11.653Z,6.90
2022-10-15T11:53:16.034Z,7.00
2022-10-15T11:55:58.004Z,6.00
2022-10-15T11:58:33.233Z,6.10
2022-10-15T12:01:12.683Z,7.00
2022-10-15T12:03:53.902Z,6.70
2022-10-15T12:06:25.012Z,6.20
2022-10-15T12:08:53.876Z,6.70
2022-10-15T12:12:00.751Z,6.90
2022-10-15T12:14:50.268Z,6.80
2022-10-15T12:17:30.940Z,6.10
2022-10-15T12:20:07.061Z,6.30
2022-10-15T12:22:41.225Z,6.50
2022-10-15T12:25:33.807Z,6.40
2022-10-15T12:28:23.976Z,6.00
2022-10-15T12:30:54.828Z,5.60
2022-10-15T12:33:47.560Z,5.80
2022-10-15T12:36:31.099Z,6.30
2022-10-15T12:39:07.843Z,5.30
2022-10-15T12:41:46.300Z,5.80
2022-10-15T12:46:59.933Z,6.50
2022-10-15T12:49:26.501Z,6.00
2022-10-15T12:51:57.549Z,5.30
2022-10-15T12:54:44.270Z,5.30
2022-10-15T12:57:32.616Z,6.30
2022-10-15T13:00:01.514Z,6.10
2022-10-15T13:02:45.504Z,6.20
2022-10-15T13:05:39.440Z,6.00
2022-10-15T13:08:15.127Z,5.20
2022-10-15T13:10:49.829Z,5.20
2022-10-15T13:13:29.388Z,5.60
2022-10-15T13:16:07.690Z,4.80
2022-10-15T13:18:34.849Z,4.80
2022-10-15T13:23:33.793Z,5.70
2022-10-15T13:26:26.945Z,5.40
2022-10-15T13:28:57.761Z,4.90
2022-10-15T13:31:36.710Z,4.90
2022-10-15T13:34:31.612Z,5.30
2022-10-15T13:37:02.152Z,5.40
2022-10-15T13:39:37.294Z,5.10
2022-10-15T13:42:09.251Z,4.60
2022-10-15T13:44:36.418Z,4.80
2022-10-15T13:47:03.670Z,6.30
2022-10-15T13:49:30.310Z,4.80
2022-10-15T13:51:56.956Z,5.20
2022-10-15T13:54:28.727Z,5.20
2022-10-15T13:57:00.790Z,5.60
2022-10-15T13:59:30.824Z,6.20
2022-10-15T14:01:59.813Z,5.10
2022-10-15T14:04:28.531Z,5.90
2022-10-15T14:07:02.820Z,5.40
2022-10-15T14:09:33.284Z,7.00
2022-10-15T14:12:02.319Z,6.80
2022-10-15T14:14:40.568Z,5.40
2022-10-15T14:17:10.194Z,5.60
2022-10-15T14:19:39.078Z,6.20
2022-10-15T14:22:06.248Z,6.90
2022-10-15T14:24:39.635Z,6.80
2022-10-15T14:27:17.649Z,6.50
2022-10-15T14:29:45.830Z,6.60
2022-10-15T14:32:24.044Z,5.50
2022-10-15T14:34:52.851Z,6.60
2022-10-15T14:37:37.837Z,6.80
2022-10-15T14:40:10.700Z,6.60
2022-10-15T14:43:01.309Z,7.20
2022-10-15T14:45:30.310Z,6.80
2022-10-15T14:47:59.625Z,6.60
2022-10-15T14:50:34.961Z,6.80
2022-10-15T14:53:07.987Z,6.60
2022-10-15T14:55:38.766Z,6.20
2022-10-15T14:58:16.291Z,6.70
2022-10-15T15:00:45.296Z,6.30
2022-10-15T15:03:22.414Z,7.00
2022-10-15T15:05:52.057Z,6.80
2022-10-15T15:08:19.164Z,7.60
2022-10-15T15:13:21.053Z,7.90
2022-10-15T15:15:47.573Z,7.20
2022-10-15T15:18:14.423Z,7.20
2022-10-15T15:20:42.203Z,7.20
2022-10-15T15:23:14.677Z,7.70
2022-10-15T15:25:41.928Z,8.30
2022-10-15T15:28:17.476Z,9.60
2022-10-15T15:30:45.122Z,10.70
2022-10-15T15:33:13.949Z,7.90
2022-10-15T15:35:48.675Z,8.10
2022-10-15T15:38:15.103Z,8.50
2022-10-15T15:40:41.535Z,7.20
2022-10-15T15:43:09.371Z,7.60
2022-10-15T15:45:35.862Z,7.80
2022-10-15T15:48:02.317Z,9.70
2022-10-15T15:50:29.362Z,9.80
2022-10-15T15:52:55.794Z,8.30
2022-10-15T15:55:23.061Z,8.80
2022-10-15T15:57:49.600Z,8.40
2022-10-15T16:00:16.554Z,8.40
2022-10-15T16:02:43.503Z,8.60
2022-10-15T16:05:13.579Z,8.80
2022-10-15T16:07:40.068Z,7.80
2022-10-15T16:10:07.344Z,8.50
2022-10-15T16:12:33.868Z,8.70
2022-10-15T16:15:01.019Z,7.90
2022-10-15T16:17:27.759Z,7.20
2022-10-15T16:19:54.507Z,7.90
2022-10-15T16:22:20.952Z,8.00
2022-10-15T16:24:47.465Z,8.40
2022-10-15T16:27:13.896Z,9.00
2022-10-15T16:29:40.477Z,8.20
2022-10-15T16:32:06.952Z,8.30
2022-10-15T16:34:33.566Z,9.60
2022-10-15T16:37:00.037Z,9.50
2022-10-15T16:39:26.464Z,9.60
2022-10-15T16:41:52.984Z,8.70
2022-10-15T16:44:19.522Z,8.60
2022-10-15T16:46:46.070Z,8.80
2022-10-15T16:49:12.552Z,9.80
2022-10-15T16:51:41.349Z,9.00
2022-10-15T16:54:14.545Z,9.80
2022-10-15T16:56:41.440Z,10.60
2022-10-15T16:59:07.955Z,9.90
2022-10-15T17:01:34.557Z,9.00
2022-10-15T17:04:01.271Z,9.10
2022-10-15T17:06:29.855Z,9.80
2022-10-15T17:09:01.334Z,9.30
2022-10-15T17:11:29.285Z,9.40
2022-10-15T17:13:58.816Z,9.60
2022-10-15T17:16:31.068Z,9.00
2022-10-15T17:18:58.171Z,8.30
2022-10-15T17:21:27.430Z,8.00
2022-10-15T17:23:56.798Z,7.90
2022-10-15T17:26:26.961Z,7.40
2022-10-15T17:28:54.554Z,8.20
2022-10-15T17:31:24.079Z,9.00
2022-10-15T17:33:58.357Z,7.70
2022-10-15T17:36:26.439Z,8.90
2022-10-15T17:38:56.360Z,7.90
2022-10-15T17:41:24.584Z,8.30
2022-10-15T17:43:52.196Z,7.80
2022-10-15T17:46:21.411Z,8.00
2022-10-15T17:48:49.191Z,8.20
2022-10-15T17:51:18.424Z,7.90
2022-10-15T17:53:45.458Z,8.70
2022-10-15T17:56:15.264Z,9.30
2022-10-15T17:58:42.183Z,9.00
2022-10-15T18:01:13.536Z,8.70
2022-10-15T18:03:40.071Z,9.10
2022-10-15T18:06:08.354Z,7.40
2022-10-15T18:08:34.790Z,9.20
2022-10-15T18:11:01.934Z,7.70
2022-10-15T18:13:28.584Z,8.10
2022-10-15T18:15:55.844Z,8.10
2022-10-15T18:18:22.595Z,8.50
2022-10-15T18:20:49.844Z,7.70
2022-10-15T18:23:16.322Z,8.30
2022-10-15T18:25:42.789Z,8.50
2022-10-15T18:28:09.768Z,8.50
2022-10-15T18:30:37.950Z,8.20
2022-10-15T18:33:05.100Z,8.20
2022-10-15T18:35:35.533Z,7.70
2022-10-15T18:38:02.273Z,7.70
2022-10-15T18:40:33.589Z,7.70
2022-10-15T18:43:03.467Z,7.80
2022-10-15T18:45:31.078Z,7.40
2022-10-15T18:47:57.656Z,7.30
2022-10-15T18:50:24.399Z,7.20
2022-10-15T18:52:50.867Z,7.50
2022-10-15T18:55:18.153Z,7.40
2022-10-15T18:57:44.743Z,8.10
2022-10-15T19:00:12.839Z,8.10
2022-10-15T19:02:39.465Z,7.20
2022-10-15T19:05:06.627Z,6.80
2022-10-15T19:07:33.575Z,7.30
2022-10-15T19:10:00.113Z,7.50
2022-10-15T19:12:27.227Z,7.10
2022-10-15T19:14:53.883Z,7.30
2022-10-15T19:17:20.326Z,7.10
2022-10-15T19:19:46.892Z,7.30
2022-10-15T19:22:13.426Z,7.50
2022-10-15T19:24:39.865Z,8.20
2022-10-15T19:27:06.437Z,8.50
2022-10-15T19:29:35.146Z,8.30
2022-10-15T19:32:02.244Z,8.50
2022-10-15T19:34:28.807Z,8.70
2022-10-15T19:36:55.373Z,8.10
2022-10-15T19:39:23.631Z,8.80
2022-10-15T19:41:51.477Z,8.90
2022-10-15T19:44:19.658Z,8.40
2022-10-15T19:46:46.303Z,9.00
2022-10-15T19:49:13.594Z,9.50
2022-10-15T19:51:40.506Z,10.40
2022-10-15T19:54:07.152Z,10.20
2022-10-15T19:56:33.940Z,9.70
2022-10-15T19:59:04.255Z,10.20
2022-10-15T20:01:31.633Z,11.10
2022-10-15T20:04:03.130Z,12.20
2022-10-15T20:06:33.779Z,11.70
2022-10-15T20:09:00.250Z,10.40
2022-10-15T20:11:26.755Z,11.30
2022-10-15T20:13:53.397Z,12.20
2022-10-15T20:16:23.007Z,13.30
2022-10-15T20:18:50.673Z,12.40
2022-10-15T20:21:17.972Z,12.10
2022-10-15T20:23:45.497Z,11.40
2022-10-15T20:26:14.297Z,11.40
2022-10-15T20:28:42.836Z,11.90
2022-10-15T20:31:15.876Z,11.30
2022-10-15T20:33:43.542Z,11.10
2022-10-15T20:36:14.864Z,10.80
2022-10-15T20:38:43.278Z,10.80
2022-10-15T20:41:15.445Z,10.80
2022-10-15T20:43:43.322Z,10.50
2022-10-15T20:46:16.828Z,10.90
2022-10-15T20:48:45.030Z,11.00
2022-10-15T20:51:15.444Z,10.70
2022-10-15T20:53:42.830Z,11.00
2022-10-15T20:56:09.437Z,11.30
2022-10-15T20:58:35.983Z,11.80
2022-10-15T21:01:02.866Z,11.60
2022-10-15T21:03:29.467Z,11.30
2022-10-15T21:05:55.904Z,11.30
2022-10-15T21:08:24.287Z,10.60
2022-10-15T21:10:50.845Z,10.20
2022-10-15T21:13:17.377Z,11.90
2022-10-15T21:15:43.809Z,11.40
2022-10-15T21:18:10.440Z,10.20
2022-10-15T21:20:36.886Z,10.60
2022-10-15T21:23:03.375Z,10.80
2022-10-15T21:25:30.016Z,10.70
2022-10-15T21:27:56.606Z,11.60
2022-10-15T21:30:23.146Z,11.40
2022-10-15T21:32:49.579Z,10.20
2022-10-15T21:35:16.027Z,10.00
2022-10-15T21:37:42.445Z,9.00
2022-10-15T21:40:09.911Z,8.80
2022-10-15T21:42:36.391Z,8.80
2022-10-15T21:45:03.424Z,8.30
2022-10-15T21:47:32.006Z,8.80
2022-10-15T21:49:58.439Z,7.60
2022-10-15T21:52:25.083Z,8.20
2022-10-15T21:54:51.729Z,8.20
2022-10-15T21:57:18.270Z,7.90
2022-10-15T21:59:44.704Z,7.60
2022-10-15T22:02:11.239Z,7.20
2022-10-15T22:04:37.884Z,7.00
2022-10-15T22:07:04.539Z,7.50
2022-10-15T22:09:31.018Z,7.70
2022-10-15T22:11:57.508Z,6.50
2022-10-15T22:14:23.979Z,7.20
2022-10-15T22:16:50.486Z,7.40
2022-10-15T22:19:17.226Z,8.00
2022-10-15T22:21:44.592Z,8.00
2022-10-15T22:24:14.243Z,7.80
2022-10-15T22:26:43.857Z,7.60
2022-10-15T22:29:25.966Z,7.80
2022-10-15T22:31:53.791Z,7.40
2022-10-15T22:34:21.697Z,7.50
2022-10-15T22:36:48.558Z,9.30
2022-10-15T22:39:17.109Z,9.00
2022-10-15T22:41:45.487Z,8.70
2022-10-15T22:44:20.933Z,10.20
2022-10-15T22:46:47.982Z,11.00
2022-10-15T22:49:15.662Z,10.70
2022-10-15T22:51:42.597Z,11.30
2022-10-15T22:54:09.764Z,11.10
2022-10-15T22:56:36.246Z,12.10
2022-10-15T22:59:03.478Z,11.40
2022-10-15T23:01:32.177Z,12.50
2022-10-15T23:04:01.230Z,12.80
2022-10-15T23:06:28.682Z,12.20
2022-10-15T23:08:55.920Z,11.80
2022-10-15T23:11:26.428Z,11.80
2022-10-15T23:13:56.997Z,12.10
2022-10-15T23:16:27.044Z,11.40
2022-10-15T23:18:58.602Z,11.40
2022-10-15T23:21:32.877Z,12.10
2022-10-15T23:24:00.493Z,11.70
2022-10-15T23:28:58.072Z,11.30
2022-10-15T23:31:27.179Z,12.00
2022-10-15T23:33:55.498Z,11.90
2022-10-15T23:36:23.362Z,11.90
2022-10-15T23:39:01.963Z,11.70
2022-10-15T23:41:29.845Z,11.30
2022-10-15T23:43:57.006Z,11.80
2022-10-15T23:46:26.047Z,12.10
2022-10-15T23:48:52.735Z,11.30
2022-10-15T23:51:25.892Z,11.70
2022-10-15T23:53:53.947Z,11.50
2022-10-15T23:56:21.563Z,11.20
2022-10-15T23:58:53.261Z,11.50
